Bridgeport Valley, California Weather observations

Data are for 10 minute period ending at time listed.
 Day   Time   Solar   Ave.   Ave.  Ave.  Vector  Max.   Baro.   Total    
  of    of     Rad.   Air    Rel.  Wind   Wind   Wind  Press.  Precip.   
Year   Day            Temp.  Hum.  Speed  Dir.   Gust                    
2015   (PST)  Kw/m2    F      %     mph   deg.    mph    mb.     in.     
-------------------------------------------------------------------------
 117    3:30   0.00   19.9    91    2.1   182     3.7   806.3    0.00 
 117    3:40   0.00   20.2    88    3.5   240     5.8   806.3    0.00 
 117    3:50   0.00   18.7    90    5.0   296     6.6   806.3    0.00 
 117    4:00   0.00   21.2    89    3.4   300     6.1   806.3    0.00 
 117    4:10   0.00   20.5    86    4.7    14     7.6   806.4    0.00 
 117    4:20   0.00   18.0    88    2.8    78     4.7   806.5    0.00 
 117    4:30   0.00   17.7    91    1.1   160     3.9   806.6    0.00 
 117    4:40   0.00   17.3    90    3.2   242     4.7   806.6    0.00 
 117    4:50   0.00   17.9    90    3.8   293     5.9   806.7    0.00 
 117    5:00   0.00   19.4    92    2.7   244     3.6   806.7    0.00 
 117    5:10   0.01   19.1    86    3.2   248     5.5   806.7    0.00 
 117    5:20   0.01   18.1    89    2.4   258     3.7   806.8    0.00 
 117    5:30   0.03   19.6    90    4.2   292     5.2   807.0    0.00 
 117    5:40   0.07   22.7    88    3.2   272     5.9   807.1    0.00 
 117    5:50   0.09   23.2    84    3.4   139     6.9   807.0    0.00 
 117    6:00   0.12   23.1    86    2.8   167     6.2   807.0    0.00 
 117    6:10   0.15   26.2    83    1.7   132     3.3   807.0    0.00 
 117    6:20   0.20   29.9    77    0.2   173     1.6   807.0    0.00 
 117    6:30   0.22   30.9    74    1.1   276     2.4   807.0    0.00 
 117    6:40   0.26   33.7    70    0.8   198     2.0   807.0    0.00 
 117    6:50   0.29   36.9    63    0.3    54     1.5   807.0    0.00 
 117    7:00   0.33   38.8    59    1.2    48     3.4   807.0    0.00 
 117    7:10   0.37   38.0    60    2.0    29     3.4   807.0    0.00 
 117    7:20   0.40   38.6    60    1.6   334     2.9   807.0    0.00 
 117    7:30   0.44   39.4    58    1.6   291     3.8   807.2    0.00 
 117    7:40   0.48   40.9    56    1.3   247     3.1   807.3    0.00 
 117    7:50   0.51   42.8    52    1.5   225     3.4   807.4    0.00 
 117    8:00   0.55   43.9    52    1.6   237     3.2   807.5    0.00 
 117    8:10   0.58   45.4    47    1.4   274     3.8   807.5    0.00 
 117    8:20   0.62   48.1    42    0.6   302     2.9   807.5    0.00 
 117    8:30   0.65   49.3    39    1.5   214     3.4   807.4    0.00 
 117    8:40   0.68   49.9    35    3.0    44     6.6   807.4    0.00 
 117    8:50   0.71   50.3    34    2.2     1     5.9   807.3    0.00 
 117    9:00   0.74   51.3    34    4.3    41     7.8   807.3    0.00 
 117    9:10   0.77   50.9    34    4.1   357     8.6   807.2    0.00 
 117    9:20   0.80   51.7    32    2.1   294     7.2   807.1    0.00 
 117    9:30   0.82   51.9    32    3.2   354     6.8   807.1    0.00 
 117    9:40   0.85   52.6    31    3.8    81     8.0   807.0    0.00 
 117    9:50   0.86   53.2    32    2.9   338     5.7   806.9    0.00 
 117   10:00   0.89   53.1    31    5.0   272     9.3   806.9    0.00 
 117   10:10   0.91   54.2    31    4.2   191     8.7   806.9    0.00 
 117   10:20   0.93   54.9    30    4.3    69     9.0   806.8    0.00 
 117   10:30   0.95   54.9    30    4.8   359    11.0   806.8    0.00 
 117   10:40   0.96   55.3    29    3.1   306     8.0   806.7    0.00 
 117   10:50   0.93   55.3    29    4.1   206     8.1   806.6    0.00 
 117   11:00   0.83   56.4    28    5.0     3    10.1   806.5    0.00 
 117   11:10   1.00   57.1    28    2.8   313     8.3   806.3    0.00 
 117   11:20   1.01   57.3    27    3.8   319     8.8   806.2    0.00 
 117   11:30   1.01   58.2    27    6.0    21    12.6   806.1    0.00 
 117   11:40   1.02   58.0    27    5.3   343    11.2   806.0    0.00 
 117   11:50   1.02   58.6    26    7.5    17    15.5   805.9    0.00 
 117   12:00   1.02   59.1    26    4.1   318    10.9   805.7    0.00 
 117   12:10   1.02   59.7    25    7.7    15    17.8   805.6    0.00 
 117   12:20   1.02   60.6    25    8.8   360    15.0   805.4    0.00 
 117   12:30   1.01   60.6    24    7.5   352    13.6   805.3    0.00 
 117   12:40   1.01   61.6    24    8.8     1    16.7   805.2    0.00 
 117   12:50   1.00   61.6    23   11.0    16    17.6   805.2    0.00 
 117   13:00   0.99   61.8    23   10.8     3    17.8   805.0    0.00 
 117   13:10   0.97   62.1    22   11.5   357    17.5   805.0    0.00 
 117   13:20   0.97   62.6    22   12.2     2    17.5   804.8    0.00 
 117   13:30   0.95   62.9    22   11.6     1    17.2   804.7    0.00 
 117   13:40   0.93   63.4    21   13.0     3    17.7   804.5    0.00 
 117   13:50   0.92   63.9    21   13.1     2    17.8   804.3    0.00 
 117   14:00   0.83   64.1    21   12.4     6    17.2   804.1    0.00 
 117   14:10   0.89   64.7    20   12.8     4    19.8   803.9    0.00 
 117   14:20   0.85   64.4    20   13.9     6    19.6   803.8    0.00 
 117   14:30   0.83   65.1    20   13.0    12    17.5   803.7    0.00 
 117   14:40   0.81   65.7    19   12.2    10    16.7   803.7    0.00 
 117   14:50   0.78   65.4    19   12.3    13    17.8   803.5    0.00 
 117   15:00   0.75   65.2    19   12.4    11    17.5   803.5    0.00 
 117   15:10   0.72   65.4    19   11.1    11    15.8   803.5    0.00 
 117   15:20   0.69   65.3    18   11.7    18    16.7   803.4    0.00 
 117   15:30   0.66   65.5    19   13.0    13    17.4   803.3    0.00 
 117   15:40   0.62   65.2    18   13.1    12    18.8   803.3    0.00 
 117   15:50   0.64   65.5    19   12.4     7    16.7   803.3    0.00 
 117   16:00   0.49   65.4    19   12.7    14    18.0   803.3    0.00 
 117   16:10   0.53   65.1    20   14.0    16    20.0   803.3    0.00 
 117   16:20   0.49   64.4    20   14.8    14    20.0   803.4    0.00 
 117   16:30   0.47   64.4    21   14.3    17    19.8   803.4    0.00 
 117   16:40   0.42   64.1    21   14.8    19    21.6   803.3    0.00 
 117   16:50   0.38   63.5    22   15.4    24    20.7   803.4    0.00 
 117   17:00   0.40   62.7    23   14.8    14    19.4   803.4    0.00 
 117   17:10   0.30   62.3    23   14.8    12    19.9   803.4    0.00 
 117   17:20   0.27   61.6    23   14.8    12    19.9   803.5    0.00 
 117   17:30   0.23   61.0    25   13.4    14    19.1   803.6    0.00 
 117   17:40   0.20   60.3    25   13.5    18    17.2   803.6    0.00 
 117   17:50   0.17   59.4    27   11.9    17    16.1   803.7    0.00 
 117   18:00   0.13   58.2    28   11.5    13    16.1   803.8    0.00 
 117   18:10   0.10   57.1    28   11.9    10    15.6   803.9    0.00 
 117   18:20   0.06   55.3    30   10.9     8    14.6   804.0    0.00 
 117   18:30   0.02   53.6    32   10.9     9    14.6   804.2    0.00 
 117   18:40   0.01   52.4    34   10.9     5    15.5   804.3    0.00 
 117   18:50   0.01   51.8    33   10.8    18    14.2   804.5    0.00 
 117   19:00   0.00   50.3    36    9.2     8    13.0   804.6    0.00 
 117   19:10   0.00   48.8    37    8.8    17    10.9   804.8    0.00 
 117   19:20   0.00   48.5    36    8.7    20    11.7   804.9    0.00 
 117   19:30   0.00   47.1    38    7.2    13    10.6   805.0    0.00 
 117   19:40   0.00   44.9    41    6.7    17     8.6   805.1    0.00 
 117   19:50   0.00   44.1    43    6.2    13     8.6   805.2    0.00 
 117   20:00   0.00   41.6    48    6.0    12     7.6   805.4    0.00 
 117   20:10   0.00   41.2    48    5.5     1     7.0   805.4    0.00 
 117   20:20   0.00   40.3    50    4.4   343     7.5   805.5    0.00 
 117   20:30   0.00   39.2    53    4.3   303     5.6   805.6    0.00 
 117   20:40   0.00   38.9    53    3.9   256     6.1   805.7    0.00 
 117   20:50   0.00   36.6    57    2.8   263     4.2   805.8    0.00 
 117   21:00   0.00   38.4    53    1.9   279     5.4   805.8    0.00 
 117   21:10   0.00   34.3    59    2.7   266     4.4   805.8    0.00 
 117   21:20   0.00   29.7    70    3.8   236     5.6   805.7    0.00 
 117   21:30   0.00   32.9    64    2.7   155     5.8   805.5    0.00 
 117   21:40   0.00   31.0    70    2.0   300     3.1   805.6    0.00 
 117   21:50   0.00   34.0    65    1.4   248     3.8   805.5    0.00 
 117   22:00   0.00   35.5    59    1.3   262     2.9   805.5    0.00 
 117   22:10   0.00   33.9    62    1.9   302     3.1   805.5    0.00 
 117   22:20   0.00   35.2    60    0.3   120     1.4   805.5    0.00 
 117   22:30   0.00   33.8    63    0.9   278     1.7   805.4    0.00 
 117   22:40   0.00   31.7    68    1.1   239     3.0   805.5    0.00 
 117   22:50   0.00   32.6    66    1.9   166     2.9   805.5    0.00 
 117   23:00   0.00   32.8    64    3.3   199     4.4   805.5    0.00 
 117   23:10   0.00   30.7    71    3.3   205     4.7   805.5    0.00 
 117   23:20   0.00   28.5    75    3.9   217     5.7   805.5    0.00 
 117   23:30   0.00   27.7    78    3.4   226     4.2   805.5    0.00 
 117   23:40   0.00   28.0    78    2.9   233     3.8   805.6    0.00 
 117   23:50   0.00   27.2    77    3.1   241     3.9   805.6    0.00 
 118    0:00   0.00   27.6    78    3.3   230     4.6   805.6    0.00 
 118    0:10   0.00   27.9    77    3.6   224     4.7   805.6    0.00 
 118    0:20   0.00   29.0    74    2.4   214     3.2   805.6    0.00 
 118    0:30   0.00   28.7    75    2.7   249     3.4   805.6    0.00 
 118    0:40   0.00   30.1    72    3.0   249     3.5   805.6    0.00 
 118    0:50   0.00   28.9    74    2.5   215     3.0   805.5    0.00 
 118    1:00   0.00   29.4    73    1.6   214     2.6   805.5    0.00 
 118    1:10   0.00   29.7    72    1.9   188     2.9   805.5    0.00 
 118    1:20   0.00   27.9    75    3.3   190     4.2   805.5    0.00 
 118    1:30   0.00   24.0    78    1.7   205     4.0   805.6    0.00 
 118    1:40   0.00   22.4    86    2.5   246     3.4   805.6    0.00 
 118    1:50   0.00   24.3    85    3.0   236     3.8   805.5    0.00 
 118    2:00   0.00   24.3    82    3.1   241     4.5   805.6    0.00 
 118    2:10   0.00   26.7    80    2.0   226     2.7   805.7    0.00 
 118    2:20   0.00   28.0    76    2.5   188     3.7   805.6    0.00 
 118    2:30   0.00   25.8    76    4.3   184     5.0   805.6    0.00 
 118    2:40   0.00   20.9    84    3.4   228     3.9   805.7    0.00 
 118    2:50   0.00   20.4    91    3.4   241     4.2   805.6    0.00 
 118    3:00   0.00   23.2    90    3.3   222     3.8   805.6    0.00 
 118    3:10   0.00   23.8    84    4.2   220     5.0   805.6    0.00 
 118    3:20   0.00   20.4    87    3.3   228     4.2   805.6    0.00 

Return to Bridgeport Valley graphs page.


Western Regional Climate Center,wrcc@dri.edu